Sunsites, Arizona
Current Conditions -  °F | °C
As of 10:56 AM on Thursday 23 Oct 2014 (Local Time) from KDUG Reporting Station
Clear Clear  
Wind Chill: 77°   Ceiling: Unl
Heat Index: 78°   Visibility: 10mi
Dew Point: 50°   Wind: 6mph
Humidity: 39%   Direction: 150°SSE
Pressure: 30.2"   Gusts: NA
Location:  31.9924°N, 109.696°W
Report Text: KDUG 231756Z AUTO 15005KT 10SM CLR 25/10 A3020 RMK AO2 SLP175 T02500100 10250 20089 58001
Loading
Personal Weather Stations






























Interactive Weather Map
Tropical Storm Tracking
New forecast layout! Learn more

10-Day Weather Forecast

Advertisements
Track Severe Weather on mobile